Time;durP1;ratioP1;P1;durP2;ratioP2;P2;SDS_P1;SDS_P2;PMS_P1;PMS_P2;Temp;Humidity;BMP_temperature;BMP_pressure;BME280_temperature;BME280_humidity;BME280_pressure;Samples;Min_cycle;Max_cycle;Signal;HPM_P1;HPM_P2
2021/09/16 00:00:55;;;;;;;13.80;5.83;;;;;;;15.67;100.00;100635.47;7393771;19;20419;-57
2021/09/16 00:03:27;;;;;;;11.53;6.43;;;;;;;15.74;100.00;100637.31;7399791;19;20433;-53
2021/09/16 00:05:57;;;;;;;15.00;6.67;;;;;;;15.74;100.00;100626.91;7393963;19;20407;-55
2021/09/16 00:08:26;;;;;;;11.70;6.30;;;;;;;15.63;100.00;100641.44;7400855;19;20396;-58
2021/09/16 00:10:56;;;;;;;21.60;6.30;;;;;;;15.57;100.00;100641.31;7393593;19;20411;-60
2021/09/16 00:13:25;;;;;;;19.43;6.10;;;;;;;15.62;100.00;100634.50;7399398;19;20483;-53
2021/09/16 00:15:55;;;;;;;12.43;6.97;;;;;;;15.66;100.00;100633.72;7390411;19;20421;-50
2021/09/16 00:18:27;;;;;;;13.73;5.90;;;;;;;15.73;100.00;100640.78;7399613;19;20379;-61
2021/09/16 00:20:56;;;;;;;14.70;6.37;;;;;;;15.64;100.00;100640.63;7392432;19;20419;-61
2021/09/16 00:23:26;;;;;;;16.63;7.10;;;;;;;15.65;100.00;100647.56;7399381;19;20486;-58
2021/09/16 00:25:55;;;;;;;12.90;6.57;;;;;;;15.59;100.00;100647.44;7395931;19;20494;-57
2021/09/16 00:28:25;;;;;;;19.87;8.10;;;;;;;15.67;100.00;100645.84;7399593;19;20468;-58
2021/09/16 00:30:54;;;;;;;13.73;5.93;;;;;;;15.64;100.00;100656.22;7395495;19;20479;-52
2021/09/16 00:33:26;;;;;;;19.37;7.27;;;;;;;15.77;100.00;100645.19;7398445;19;20897;-55
2021/09/16 00:35:55;;;;;;;11.93;6.73;;;;;;;15.68;100.00;100642.41;7391616;19;20411;-50
2021/09/16 00:38:25;;;;;;;17.60;7.30;;;;;;;15.69;100.00;100651.09;7399648;19;20898;-54
2021/09/16 00:40:54;;;;;;;20.03;7.60;;;;;;;15.69;100.00;100648.50;7392756;19;20432;-55
2021/09/16 00:43:24;;;;;;;12.87;6.07;;;;;;;15.61;100.00;100645.75;7398738;19;20485;-56
2021/09/16 00:45:53;;;;;;;15.20;7.33;;;;;;;15.68;100.00;100646.75;7391682;19;20692;-59
2021/09/16 00:48:23;;;;;;;10.83;6.70;;;;;;;15.65;100.00;100652.78;7399432;19;20459;-59
2021/09/16 00:50:55;;;;;;;12.97;7.90;;;;;;;15.72;100.00;100649.44;7391238;19;20494;-54
2021/09/16 00:53:24;;;;;;;16.83;6.90;;;;;;;15.62;100.00;100656.19;7397503;19;20471;-55
2021/09/16 00:55:54;;;;;;;14.50;7.00;;;;;;;15.62;100.00;100655.28;7394980;19;20735;-54
2021/09/16 00:58:26;;;;;;;13.93;7.10;;;;;;;15.66;100.00;100657.13;7399178;19;20455;-54
2021/09/16 01:00:56;;;;;;;17.97;7.80;;;;;;;15.56;100.00;100657.78;7391417;19;20425;-55
2021/09/16 01:03:28;;;;;;;12.53;7.20;;;;;;;15.61;100.00;100656.16;7397829;19;20420;-55
2021/09/16 01:06:00;;;;;;;17.10;7.70;;;;;;;15.59;100.00;100653.50;7391271;19;20773;-54
2021/09/16 01:08:30;;;;;;;13.10;6.70;;;;;;;15.53;100.00;100654.28;7399165;19;20399;-57
2021/09/16 01:11:00;;;;;;;15.20;6.23;;;;;;;15.53;100.00;100646.47;7391813;19;20423;-54
2021/09/16 01:13:30;;;;;;;10.97;6.90;;;;;;;15.59;100.00;100648.31;7400347;19;20424;-51
2021/09/16 01:16:00;;;;;;;14.83;6.93;;;;;;;15.59;100.00;100650.91;7390671;19;20749;-54
2021/09/16 01:18:29;;;;;;;13.50;7.20;;;;;;;15.60;100.00;100647.50;7398908;19;20451;-59
2021/09/16 01:21:02;;;;;;;19.80;7.90;;;;;;;15.53;100.00;100638.69;7391646;19;20411;-58
2021/09/16 01:23:34;;;;;;;13.80;6.47;;;;;;;15.48;100.00;100648.09;7397596;19;20672;-57
2021/09/16 01:26:04;;;;;;;18.03;7.70;;;;;;;15.58;100.00;100651.75;7394369;19;20483;-53
2021/09/16 01:28:33;;;;;;;19.43;7.90;;;;;;;15.56;100.00;100643.06;7398367;19;20401;-55
2021/09/16 01:31:03;;;;;;;18.37;7.73;;;;;;;15.43;100.00;100656.66;7387832;19;20776;-55
2021/09/16 01:33:32;;;;;;;9.63;6.50;;;;;;;15.42;100.00;100655.78;7396156;19;20407;-57
2021/09/16 01:36:02;;;;;;;14.63;6.97;;;;;;;15.42;100.00;100653.19;7390164;19;20422;-55
2021/09/16 01:38:34;;;;;;;14.90;8.30;;;;;;;15.46;100.00;100654.13;7398098;19;20396;-58
2021/09/16 01:41:03;;;;;;;14.70;7.50;;;;;;;15.43;100.00;100652.34;7395051;19;20526;-58
2021/09/16 01:43:32;;;;;;;13.40;7.53;;;;;;;15.39;100.00;100656.59;7403626;19;20412;-57
2021/09/16 01:46:02;;;;;;;10.93;7.63;;;;;;;15.42;100.00;100640.19;7397281;19;20898;-59
2021/09/16 01:48:31;;;;;;;12.33;6.93;;;;;;;15.34;100.00;100642.63;7405589;19;20379;-60
2021/09/16 01:51:01;;;;;;;11.87;6.77;;;;;;;15.43;100.00;100649.72;7396735;19;20443;-56
2021/09/16 01:53:30;;;;;;;11.80;6.73;;;;;;;15.39;100.00;100642.72;7402570;19;20440;-56
2021/09/16 01:56:02;;;;;;;8.53;5.50;;;;;;;15.24;100.00;100651.94;7397035;19;20411;-55
2021/09/16 01:58:32;;;;;;;21.13;6.83;;;;;;;15.27;100.00;100643.34;7405130;19;20472;-53
2021/09/16 02:01:01;;;;;;;14.43;7.07;;;;;;;15.25;100.00;100642.44;7397862;19;20514;-55
2021/09/16 02:03:31;;;;;;;12.80;6.60;;;;;;;15.25;100.00;100645.94;7402849;19;20440;-57
2021/09/16 02:06:01;;;;;;;12.43;6.57;;;;;;;15.24;100.00;100641.56;7391469;19;20422;-55
2021/09/16 02:08:30;;;;;;;12.50;6.30;;;;;;;15.19;100.00;100642.31;7404870;19;20398;-54
2021/09/16 02:11:02;;;;;;;19.53;6.23;;;;;;;15.22;100.00;100648.44;7395109;19;20510;-56
2021/09/16 02:13:32;;;;;;;16.07;6.20;;;;;;;15.18;100.00;100646.63;7402805;19;20419;-58
2021/09/16 02:16:01;;;;;;;13.43;5.97;;;;;;;15.15;100.00;100646.56;7394917;19;20427;-59
2021/09/16 02:18:31;;;;;;;14.50;7.73;;;;;;;15.20;100.00;100639.75;7404553;19;20384;-56
2021/09/16 02:21:00;;;;;;;10.83;4.80;;;;;;;15.14;100.00;100644.81;7396034;19;20430;-56
2021/09/16 02:23:30;;;;;;;9.57;5.03;;;;;;;15.11;100.00;100642.16;7402688;19;20419;-56
2021/09/16 02:25:59;;;;;;;14.43;4.77;;;;;;;15.12;100.00;100641.28;7389220;19;20478;-53
2021/09/16 02:28:31;;;;;;;9.70;4.10;;;;;;;15.11;100.00;100644.75;7403000;19;20737;-58
2021/09/16 02:31:01;;;;;;;9.27;3.73;;;;;;;15.04;100.00;100641.16;7396221;19;20491;-56
2021/09/16 02:33:32;;;;;;;6.27;3.57;;;;;;;14.99;100.00;100646.22;7402354;19;20789;-56
2021/09/16 02:36:02;;;;;;;10.50;3.80;;;;;;;15.02;100.00;100641.97;7393226;19;20476;-57
2021/09/16 02:38:31;;;;;;;10.23;4.67;;;;;;;15.06;100.00;100641.16;7403731;19;20523;-59
2021/09/16 02:41:01;;;;;;;5.60;2.30;;;;;;;14.81;100.00;100643.22;7395374;19;20437;-58
2021/09/16 02:43:33;;;;;;;4.80;2.50;;;;;;;14.85;100.00;100634.66;7402123;19;20910;-54
2021/09/16 02:46:02;;;;;;;3.60;1.80;;;;;;;14.77;100.00;100638.81;7395430;19;20490;-57
2021/09/16 02:48:32;;;;;;;8.13;2.40;;;;;;;14.80;100.00;100647.56;7403215;19;20399;-54
2021/09/16 02:51:01;;;;;;;4.33;2.20;;;;;;;14.83;100.00;100654.53;7395671;19;20715;-56
2021/09/16 02:53:31;;;;;;;5.57;2.20;;;;;;;14.77;100.00;100644.03;7400157;19;20471;-56
2021/09/16 02:56:00;;;;;;;10.47;2.67;;;;;;;14.77;100.00;100644.03;7398956;19;20697;-55
2021/09/16 02:58:32;;;;;;;9.50;2.50;;;;;;;14.79;100.00;100631.94;7403193;19;20466;-58
2021/09/16 03:01:02;;;;;;;4.57;2.10;;;;;;;14.72;100.00;100631.75;7395900;19;20421;-58
2021/09/16 03:03:31;;;;;;;6.60;1.90;;;;;;;14.60;100.00;100641.88;7400427;19;20407;-54
2021/09/16 03:06:01;;;;;;;5.30;2.17;;;;;;;14.64;100.00;100638.50;7398544;19;20422;-50
2021/09/16 03:08:30;;;;;;;9.00;2.03;;;;;;;14.66;100.00;100638.56;7402782;19;20712;-59
2021/09/16 03:10:59;;;;;;;7.37;2.20;;;;;;;14.62;100.00;100640.19;7397977;19;20475;-57
2021/09/16 03:13:29;;;;;;;4.53;1.60;;;;;;;14.57;100.00;100647.00;7400716;19;20424;-58
2021/09/16 03:16:01;;;;;;;9.10;1.70;;;;;;;14.61;100.00;100642.75;7400189;19;20487;-57
2021/09/16 03:18:30;;;;;;;7.03;1.60;;;;;;;14.59;100.00;100642.72;7402524;19;20391;-56
2021/09/16 03:21:00;;;;;;;5.60;1.67;;;;;;;14.51;100.00;100652.06;7395377;19;20486;-58
2021/09/16 03:23:29;;;;;;;6.40;1.80;;;;;;;14.54;100.00;100653.00;7400450;19;20420;-55
2021/09/16 03:25:59;;;;;;;5.80;1.27;;;;;;;14.48;100.00;100649.38;7398193;19;20487;-55
2021/09/16 03:28:28;;;;;;;4.47;1.20;;;;;;;14.51;100.00;100655.50;7401930;19;20392;-57
2021/09/16 03:31:00;;;;;;;8.50;1.50;;;;;;;14.42;100.00;100657.88;7398424;19;20419;-54
2021/09/16 03:33:30;;;;;;;6.97;1.70;;;;;;;14.54;100.00;100654.69;7400864;19;20410;-54
2021/09/16 03:35:59;;;;;;;7.57;1.30;;;;;;;14.40;100.00;100657.84;7386448;19;20495;-51
2021/09/16 03:38:29;;;;;;;6.20;1.73;;;;;;;14.53;100.00;100655.53;7401400;19;20451;-59
2021/09/16 03:40:59;;;;;;;7.13;1.50;;;;;;;14.54;100.00;100647.81;7384578;19;20738;-59
2021/09/16 03:43:28;;;;;;;5.77;1.47;;;;;;;14.47;100.00;100652.81;7400395;19;20411;-55
2021/09/16 03:46:00;;;;;;;4.03;1.83;;;;;;;14.61;100.00;100654.00;7393381;19;20425;-54
2021/09/16 03:48:30;;;;;;;3.30;1.57;;;;;;;14.45;100.00;100648.47;7401665;19;20667;-59
2021/09/16 03:50:59;;;;;;;12.83;1.43;;;;;;;14.40;100.00;100652.66;7384858;19;20691;-59
2021/09/16 03:53:28;;;;;;;6.30;1.40;;;;;;;14.36;100.00;100653.41;7399645;19;20427;-60
2021/09/16 03:55:59;;;;;;;7.53;1.30;;;;;;;14.37;100.00;100659.50;7396353;19;20411;-59
2021/09/16 03:58:28;;;;;;;5.30;1.70;;;;;;;14.39;100.00;100656.09;7400487;19;20398;-60
2021/09/16 04:01:00;;;;;;;14.20;1.80;;;;;;;14.35;100.00;100651.66;7394236;19;20419;-57
2021/09/16 04:03:30;;;;;;;4.87;1.20;;;;;;;14.37;100.00;100649.09;7397950;19;20471;-58
2021/09/16 04:05:59;;;;;;;5.20;1.50;;;;;;;14.47;100.00;100650.22;7392388;19;20408;-58
2021/09/16 04:08:29;;;;;;;5.90;1.40;;;;;;;14.32;100.00;100656.78;7400665;19;20392;-56
2021/09/16 04:10:58;;;;;;;5.90;1.20;;;;;;;14.31;100.00;100649.84;7393952;19;20874;-56
2021/09/16 04:13:28;;;;;;;3.43;1.60;;;;;;;14.40;100.00;100656.97;7399064;19;20438;-60
2021/09/16 04:15:57;;;;;;;9.97;2.30;;;;;;;14.36;100.00;100650.81;7390568;19;20511;-57
2021/09/16 04:18:29;;;;;;;7.50;1.53;;;;;;;14.32;100.00;100649.88;7400652;19;20388;-57
2021/09/16 04:20:59;;;;;;;4.57;1.40;;;;;;;14.31;100.00;100649.84;7393256;19;20419;-57
2021/09/16 04:23:29;;;;;;;11.13;1.80;;;;;;;14.28;100.00;100654.94;7399442;19;20427;-58
2021/09/16 04:25:58;;;;;;;5.13;1.40;;;;;;;14.24;100.00;100653.09;7396287;19;20427;-58
2021/09/16 04:28:27;;;;;;;7.93;1.53;;;;;;;14.23;100.00;100653.94;7400171;19;20901;-59
2021/09/16 04:30:57;;;;;;;12.93;2.13;;;;;;;14.27;100.00;100651.50;7393156;19;20569;-56
2021/09/16 04:33:29;;;;;;;6.93;1.50;;;;;;;14.24;100.00;100653.09;7397770;19;20424;-57
2021/09/16 04:35:58;;;;;;;4.73;1.47;;;;;;;14.27;100.00;100660.97;7392626;19;20445;-55
2021/09/16 04:38:28;;;;;;;9.53;3.80;;;;;;;14.16;100.00;100668.50;7399757;19;20387;-57
2021/09/16 04:40:57;;;;;;;5.07;1.80;;;;;;;14.10;100.00;100669.19;7392955;19;20437;-57
2021/09/16 04:43:27;;;;;;;4.20;2.13;;;;;;;14.15;100.00;100669.34;7398689;19;20484;-56
2021/09/16 04:45:56;;;;;;;7.43;1.80;;;;;;;14.05;100.00;100668.19;7391863;19;20495;-57
2021/09/16 04:48:28;;;;;;;8.17;2.40;;;;;;;14.17;100.00;100667.66;7399736;19;20774;-55
2021/09/16 04:50:58;;;;;;;7.10;1.60;;;;;;;14.08;100.00;100678.66;7391229;19;20422;-57
2021/09/16 04:53:27;;;;;;;5.33;1.40;;;;;;;14.05;100.00;100675.97;7398289;19;20890;-56
2021/09/16 04:55:57;;;;;;;8.57;1.63;;;;;;;14.07;100.00;100687.28;7394483;19;20474;-53
2021/09/16 04:58:26;;;;;;;3.80;1.50;;;;;;;14.09;100.00;100680.41;7399354;19;20471;-56
2021/09/16 05:00:56;;;;;;;5.53;1.40;;;;;;;14.04;100.00;100687.19;7392232;19;20419;-59
2021/09/16 05:03:28;;;;;;;11.40;2.17;;;;;;;13.98;100.00;100685.34;7398015;19;20720;-55
2021/09/16 05:05:58;;;;;;;5.60;1.93;;;;;;;14.04;100.00;100682.91;7391226;19;20411;-56
2021/09/16 05:08:27;;;;;;;6.57;2.00;;;;;;;14.02;100.00;100686.28;7399105;19;20973;-57
2021/09/16 05:10:57;;;;;;;5.77;1.83;;;;;;;13.96;100.00;100678.34;7385060;19;20742;-58
2021/09/16 05:13:26;;;;;;;3.33;1.80;;;;;;;13.90;100.00;100682.53;7398246;19;20507;-55
2021/09/16 05:15:56;;;;;;;9.30;2.10;;;;;;;13.96;100.00;100689.63;7384758;19;20466;-57
2021/09/16 05:18:25;;;;;;;4.47;1.50;;;;;;;14.02;100.00;100678.50;7406516;19;20410;-56
2021/09/16 05:20:57;;;;;;;5.53;1.93;;;;;;;14.02;100.00;100681.09;7399472;19;20411;-52
2021/09/16 05:23:27;;;;;;;6.23;2.70;;;;;;;14.06;100.00;100676.88;7404366;19;20438;-55
2021/09/16 05:25:56;;;;;;;6.07;2.60;;;;;;;13.95;100.00;100676.59;7401562;19;20425;-52
2021/09/16 05:28:25;;;;;;;8.37;3.70;;;;;;;13.98;100.00;100687.94;7406037;19;20734;-51
2021/09/16 05:30:55;;;;;;;7.17;3.40;;;;;;;13.97;100.00;100680.09;7398212;19;20411;-57
2021/09/16 05:33:24;;;;;;;14.83;4.20;;;;;;;13.92;100.00;100685.16;7403978;19;20878;-56
2021/09/16 05:35:56;;;;;;;4.03;2.77;;;;;;;13.88;100.00;100692.00;7397953;19;20423;-55
2021/09/16 05:38:26;;;;;;;9.53;3.50;;;;;;;13.75;100.00;100692.50;7405688;19;20448;-56
2021/09/16 05:40:55;;;;;;;10.50;3.27;;;;;;;13.94;100.00;100690.41;7398576;19;20486;-54
2021/09/16 05:43:25;;;;;;;7.03;3.80;;;;;;;13.90;100.00;100690.31;7403804;19;20424;-57
2021/09/16 05:45:54;;;;;;;8.33;3.83;;;;;;;13.88;100.00;100697.19;7397617;19;20415;-59
2021/09/16 05:48:24;;;;;;;7.23;3.37;;;;;;;13.91;100.00;100697.25;7404717;19;20390;-55
2021/09/16 05:50:57;;;;;;;10.13;3.40;;;;;;;13.85;100.00;100697.09;7398367;19;20482;-54
2021/09/16 05:53:26;;;;;;;7.93;4.20;;;;;;;13.88;100.00;100699.78;7403226;19;20435;-59
2021/09/16 05:55:55;;;;;;;5.63;3.30;;;;;;;13.87;100.00;100704.91;7397591;19;20417;-58
2021/09/16 05:58:25;;;;;;;7.03;3.90;;;;;;;13.89;100.00;100695.44;7405286;19;20476;-53
2021/09/16 06:00:54;;;;;;;8.10;4.10;;;;;;;13.88;100.00;100694.59;7397773;19;20406;-56
2021/09/16 06:03:24;;;;;;;7.67;3.87;;;;;;;13.82;100.00;100697.00;7403016;19;20454;-55
2021/09/16 06:05:56;;;;;;;10.60;4.60;;;;;;;13.94;100.00;100700.78;7395721;19;20427;-57
2021/09/16 06:08:26;;;;;;;7.53;4.20;;;;;;;13.99;100.00;100704.34;7404043;19;20711;-57
2021/09/16 06:10:55;;;;;;;9.20;4.73;;;;;;;14.03;100.00;100698.41;7397263;19;20448;-56
2021/09/16 06:13:24;;;;;;;10.23;4.63;;;;;;;14.02;100.00;100694.97;7402663;19;20430;-56
2021/09/16 06:15:54;;;;;;;15.53;5.97;;;;;;;13.96;100.00;100702.59;7396507;19;20399;-57
2021/09/16 06:18:23;;;;;;;15.57;4.50;;;;;;;14.01;100.00;100695.78;7404738;19;20468;-55
2021/09/16 06:20:53;;;;;;;8.60;4.90;;;;;;;14.10;100.00;100694.28;7397334;19;20415;-56
2021/09/16 06:23:25;;;;;;;8.03;4.23;;;;;;;14.09;100.00;100698.59;7402824;19;20700;-58
2021/09/16 06:25:54;;;;;;;12.63;4.53;;;;;;;14.04;100.00;100702.75;7395974;19;20748;-60
2021/09/16 06:28:24;;;;;;;13.17;5.27;;;;;;;14.08;100.00;100703.72;7401897;19;20402;-59
2021/09/16 06:30:53;;;;;;;8.93;4.83;;;;;;;14.10;100.00;100708.13;7397237;19;20483;-59
2021/09/16 06:33:23;;;;;;;7.03;4.47;;;;;;;14.06;100.00;100711.50;7402509;19;20448;-50
2021/09/16 06:35:52;;;;;;;9.23;4.50;;;;;;;14.14;100.00;100712.56;7396026;19;20711;-57
2021/09/16 06:38:24;;;;;;;9.80;4.50;;;;;;;14.23;100.00;100713.63;7403744;19;20455;-56
2021/09/16 06:40:54;;;;;;;7.53;5.00;;;;;;;14.29;100.00;100716.38;7397053;19;20403;-53
2021/09/16 06:43:24;;;;;;;18.03;5.43;;;;;;;14.18;100.00;100717.00;7402298;19;20427;-57
2021/09/16 06:45:53;;;;;;;8.47;4.83;;;;;;;14.22;100.00;100714.47;7395270;19;20429;-56
2021/09/16 06:48:22;;;;;;;6.33;4.30;;;;;;;14.28;100.00;100712.94;7403749;19;20891;-57
2021/09/16 06:50:52;;;;;;;9.40;5.10;;;;;;;14.34;100.00;100712.19;7395329;19;20427;-57
2021/09/16 06:53:21;;;;;;;13.80;5.10;;;;;;;14.37;100.00;100712.28;7401896;19;20762;-59
2021/09/16 06:55:53;;;;;;;9.40;4.53;;;;;;;14.29;100.00;100699.09;7394287;19;20694;-56
2021/09/16 06:58:23;;;;;;;12.60;4.87;;;;;;;14.30;100.00;100700.84;7403226;19;20452;-55
2021/09/16 07:00:52;;;;;;;10.90;5.23;;;;;;;14.24;100.00;100699.81;7396029;19;20671;-56
2021/09/16 07:03:22;;;;;;;6.93;5.17;;;;;;;14.23;100.00;100714.53;7400765;19;20419;-54
2021/09/16 07:05:52;;;;;;;20.20;6.50;;;;;;;14.28;100.00;100712.03;7395661;19;20440;-54
2021/09/16 07:08:21;;;;;;;7.63;5.50;;;;;;;14.36;100.00;100723.47;7403842;19;20404;-54
2021/09/16 07:10:53;;;;;;;13.37;6.30;;;;;;;14.41;100.00;100715.84;7396052;19;20440;-54
2021/09/16 07:13:23;;;;;;;8.90;6.47;;;;;;;14.35;100.00;100724.31;7401339;19;20415;-56
2021/09/16 07:15:52;;;;;;;10.63;6.87;;;;;;;14.50;100.00;100729.03;7395042;19;20444;-55
2021/09/16 07:18:22;;;;;;;14.20;6.47;;;;;;;14.49;100.00;100722.09;7402707;19;20867;-60
2021/09/16 07:20:51;;;;;;;13.40;6.40;;;;;;;14.41;100.00;100723.63;7395220;19;20419;-54
2021/09/16 07:23:21;;;;;;;15.23;7.40;;;;;;;14.34;100.00;100722.56;7400739;19;20424;-57
2021/09/16 07:25:50;;;;;;;15.30;7.03;;;;;;;14.43;100.00;100728.03;7394801;19;20407;-57
2021/09/16 07:28:22;;;;;;;10.20;7.00;;;;;;;14.45;100.00;100731.53;7402357;19;20384;-57
2021/09/16 07:30:52;;;;;;;8.47;6.47;;;;;;;14.33;100.00;100736.41;7395044;19;20417;-53
2021/09/16 07:33:21;;;;;;;12.60;7.20;;;;;;;14.39;100.00;100741.75;7400764;19;20419;-55
2021/09/16 07:35:51;;;;;;;15.37;8.10;;;;;;;14.45;100.00;100744.50;7384936;19;20415;-53
2021/09/16 07:38:20;;;;;;;10.57;7.50;;;;;;;14.39;100.00;100744.34;7401490;19;20455;-58
2021/09/16 07:40:50;;;;;;;11.10;7.40;;;;;;;14.48;100.00;100740.22;7393488;19;20405;-57
2021/09/16 07:43:22;;;;;;;11.90;7.73;;;;;;;14.42;100.00;100744.41;7400536;19;20894;-57
2021/09/16 07:45:51;;;;;;;12.40;7.13;;;;;;;14.35;100.00;100745.09;7394045;19;20411;-57
2021/09/16 07:48:23;;;;;;;13.20;8.30;;;;;;;14.33;100.00;100751.97;7401600;19;20388;-60
2021/09/16 07:50:53;;;;;;;14.80;9.60;;;;;;;14.40;100.00;100759.06;7394721;19;20762;-59
2021/09/16 07:53:22;;;;;;;11.80;7.50;;;;;;;14.26;100.00;100760.44;7400696;19;20486;-57
2021/09/16 07:55:52;;;;;;;11.27;7.97;;;;;;;14.33;100.00;100767.53;7392227;19;20482;-57
2021/09/16 07:58:25;;;;;;;19.33;9.00;;;;;;;14.34;100.00;100771.00;7401388;19;20396;-60
2021/09/16 08:00:54;;;;;;;12.03;8.07;;;;;;;14.48;100.00;100776.56;7394399;19;20742;-60
2021/09/16 08:03:24;;;;;;;12.47;8.50;;;;;;;14.60;100.00;100776.00;7399786;19;20870;-60
2021/09/16 08:05:54;;;;;;;16.03;7.67;;;;;;;14.50;100.00;100780.09;7383907;19;20413;-60
2021/09/16 08:08:23;;;;;;;10.63;6.50;;;;;;;14.62;100.00;100780.41;7401103;19;20388;-58
2021/09/16 08:10:53;;;;;;;9.37;6.10;;;;;;;14.58;100.00;100778.56;7394131;19;20427;-55
2021/09/16 08:13:26;;;;;;;15.83;7.43;;;;;;;14.72;100.00;100777.19;7399503;19;20420;-59
2021/09/16 08:15:55;;;;;;;11.50;5.77;;;;;;;14.57;100.00;100772.47;7391570;19;20423;-54
2021/09/16 08:18:25;;;;;;;11.80;5.57;;;;;;;14.66;100.00;100766.63;7400825;19;20691;-57
2021/09/16 08:20:55;;;;;;;8.33;5.40;;;;;;;14.69;100.00;100760.66;7393119;19;20474;-59
2021/09/16 08:23:25;;;;;;;5.87;4.27;;;;;;;14.72;100.00;100759.00;7399287;19;20412;-53
2021/09/16 08:25:54;;;;;;;11.90;5.73;;;;;;;14.84;100.00;100762.78;7392877;19;20419;-58
2021/09/16 08:28:26;;;;;;;7.67;5.20;;;;;;;14.88;100.00;100762.03;7400260;19;20858;-54
2021/09/16 08:30:56;;;;;;;9.43;4.93;;;;;;;14.88;100.00;100762.03;7393286;19;20423;-52
2021/09/16 08:33:25;;;;;;;14.40;9.73;;;;;;;15.04;100.00;100764.97;7399257;19;20431;-56
2021/09/16 08:35:55;;;;;;;9.30;4.80;;;;;;;14.87;100.00;100760.25;7390264;19;20703;-58
2021/09/16 08:38:24;;;;;;;7.73;4.90;;;;;;;14.82;100.00;100764.47;7400228;19;20388;-56
2021/09/16 08:40:54;;;;;;;12.77;5.97;;;;;;;14.93;100.00;100760.38;7392616;19;20430;-50
2021/09/16 08:43:32;;;;;;;8.40;4.90;;;;;;;14.83;100.00;100771.41;7399048;19;20408;-58
2021/09/16 08:46:03;;;;;;;11.77;6.13;;;;;;;15.07;100.00;100767.66;7392123;19;20436;-58
2021/09/16 08:48:33;;;;;;;9.90;5.27;;;;;;;15.03;100.00;100765.81;7399638;19;20416;-52
2021/09/16 08:51:03;;;;;;;16.67;7.10;;;;;;;15.20;100.00;100758.41;7389678;19;20694;-57
2021/09/16 08:53:33;;;;;;;9.87;5.53;;;;;;;15.27;100.00;100759.44;7398311;19;20415;-53
2021/09/16 08:56:07;;;;;;;7.33;4.40;;;;;;;15.24;100.00;100755.91;7391290;19;20452;-55
2021/09/16 08:58:40;;;;;;;10.87;5.03;;;;;;;15.34;100.00;100750.94;7399531;19;20736;-53
2021/09/16 09:01:09;;;;;;;9.07;4.70;;;;;;;15.31;100.00;100749.13;7392257;19;20518;-56
2021/09/16 09:03:39;;;;;;;7.27;5.33;;;;;;;15.44;100.00;100737.28;7397803;19;20419;-58
2021/09/16 09:06:28;;;;;;;11.03;4.83;;;;;;;15.50;100.00;100731.34;7391686;19;20486;-55
2021/09/16 09:09:15;;;;;;;7.67;3.93;;;;;;;15.43;100.00;100725.13;7399019;19;20390;-51
2021/09/16 09:11:57;;;;;;;11.27;4.77;;;;;;;15.76;100.00;100718.00;7391345;19;20947;-57
2021/09/16 09:14:30;;;;;;;9.40;5.67;;;;;;;15.80;100.00;100733.69;7403524;19;20406;-54
2021/09/16 09:17:02;;;;;;;6.57;3.63;;;;;;;15.77;100.00;100725.84;7390569;19;20703;-58
2021/09/16 09:19:32;;;;;;;7.13;3.83;;;;;;;15.83;100.00;100729.41;7399202;19;20806;-55
2021/09/16 09:22:07;;;;;;;6.67;3.70;;;;;;;15.86;100.00;100734.66;7391556;19;20416;-55
2021/09/16 09:24:40;;;;;;;6.60;3.13;;;;;;;15.97;100.00;100729.69;7399026;19;20398;-57
2021/09/16 09:27:22;;;;;;;7.30;2.83;;;;;;;15.99;100.00;100718.47;7393532;19;20881;-59
2021/09/16 09:30:14;;;;;;;6.53;2.53;;;;;;;16.04;100.00;100719.44;7392286;19;20400;-55
2021/09/16 09:32:56;;;;;;;4.17;2.47;;;;;;;16.16;100.00;100712.69;7397652;19;20422;-52
2021/09/16 09:35:30;;;;;;;5.10;2.60;;;;;;;16.19;100.00;100697.13;7389371;19;20733;-54
2021/09/16 09:38:02;;;;;;;7.63;2.70;;;;;;;16.30;100.00;100700.78;7398570;19;20836;-54
2021/09/16 09:40:33;;;;;;;5.97;2.60;;;;;;;16.30;100.00;100706.00;7391074;19;20443;-53
2021/09/16 09:43:35;;;;;;;7.13;3.03;;;;;;;16.40;100.00;100716.59;7397132;19;20419;-54
2021/09/16 09:46:10;;;;;;;7.23;3.10;;;;;;;16.56;100.00;100710.75;7389699;19;20419;-56
2021/09/16 09:48:42;;;;;;;10.23;2.90;;;;;;;16.42;100.00;100714.88;7398115;19;20743;-56
2021/09/16 09:51:12;;;;;;;8.17;2.93;;;;;;;16.50;100.00;100710.66;7390557;19;20488;-52
2021/09/16 09:53:44;;;;;;;8.67;2.43;;;;;;;16.65;100.00;100709.16;7396178;19;20922;-52
2021/09/16 09:56:34;;;;;;;7.67;2.80;;;;;;;16.70;100.00;100697.97;7390114;19;20721;-55
2021/09/16 09:59:03;;;;;;;6.40;2.33;;;;;;;16.78;100.00;100703.31;7398083;19;20396;-55
2021/09/16 10:01:37;;;;;;;10.40;2.80;;;;;;;16.92;100.00;100700.03;7391979;19;20415;-56
2021/09/16 10:04:26;;;;;;;6.37;2.40;;;;;;;16.98;100.00;100700.13;7401649;19;20426;-54
2021/09/16 10:06:55;;;;;;;6.17;2.30;;;;;;;16.86;100.00;100701.69;7389961;19;20435;-56
2021/09/16 10:09:25;;;;;;;13.37;2.83;;;;;;;16.91;100.00;100696.53;7405240;19;20380;-54
2021/09/16 10:11:57;;;;;;;4.43;2.23;;;;;;;16.84;100.00;100702.50;7399962;19;20490;-53
2021/09/16 10:14:27;;;;;;;5.17;2.60;;;;;;;16.91;100.00;100709.56;7404978;19;20459;-56
2021/09/16 10:16:59;;;;;;;5.37;2.87;;;;;;;16.99;100.00;100707.06;7394896;19;20431;-52
2021/09/16 10:19:30;;;;;;;5.97;2.67;;;;;;;17.01;100.00;100710.56;7404954;19;20845;-56
2021/09/16 10:21:59;;;;;;;10.53;2.43;;;;;;;16.88;100.00;100712.13;7397904;19;20470;-58
2021/09/16 10:24:29;;;;;;;4.33;2.50;;;;;;;16.85;100.00;100712.97;7404799;19;20408;-51
2021/09/16 10:26:58;;;;;;;7.93;2.50;;;;;;;16.85;100.00;100715.56;7395208;19;20423;-50
2021/09/16 10:29:37;;;;;;;3.40;2.00;;;;;;;16.84;100.00;100713.81;7404619;19;20471;-51
2021/09/16 10:32:36;;;;;;;5.80;2.57;;;;;;;16.88;100.00;100713.00;7396996;19;20442;-54
2021/09/16 10:35:22;;;;;;;8.93;2.50;;;;;;;16.78;100.00;100718.06;7397746;19;20392;-57
2021/09/16 10:37:52;;;;;;;5.37;2.20;;;;;;;16.65;100.00;100719.56;7404146;19;20412;-55
2021/09/16 10:40:28;;;;;;;5.10;1.90;;;;;;;16.83;100.00;100725.06;7384514;19;20419;-55
2021/09/16 10:43:01;;;;;;;9.93;2.53;;;;;;;17.00;100.00;100719.25;7402646;19;20930;-54
2021/09/16 10:45:34;;;;;;;4.33;2.00;;;;;;;16.96;100.00;100720.03;7386463;19;20427;-56
2021/09/16 10:48:29;;;;;;;6.60;2.17;;;;;;;16.84;100.00;100729.47;7404010;19;20393;-55
2021/09/16 10:51:04;;;;;;;7.37;2.73;;;;;;;16.86;100.00;100732.94;7388193;19;20422;-53
2021/09/16 10:53:41;;;;;;;4.10;1.97;;;;;;;16.63;100.00;100734.31;7401900;19;20415;-55
2021/09/16 10:56:46;;;;;;;2.63;1.83;;;;;;;16.55;100.00;100731.56;7395096;19;20457;-50
2021/09/16 10:59:16;;;;;;;13.03;3.10;;;;;;;16.73;100.00;100721.44;7402262;19;20479;-56
2021/09/16 11:02:01;;;;;;;9.53;2.50;;;;;;;16.83;100.00;100721.59;7395605;19;20486;-57
2021/09/16 11:05:02;;;;;;;7.27;2.53;;;;;;;17.04;100.00;100723.69;7403527;19;20384;-54
2021/09/16 11:07:56;;;;;;;7.40;2.70;;;;;;;17.05;100.00;100717.63;7402139;19;20427;-57
2021/09/16 11:10:51;;;;;;;6.90;2.10;;;;;;;17.30;100.00;100715.34;7390836;19;20411;-55
2021/09/16 11:13:41;;;;;;;4.87;2.27;;;;;;;17.37;100.00;100714.56;7400001;19;20445;-57
2021/09/16 11:16:11;;;;;;;4.73;2.13;;;;;;;17.41;100.00;100708.56;7383384;19;20499;-56
2021/09/16 11:18:43;;;;;;;13.40;3.03;;;;;;;17.51;100.00;100712.16;7402174;19;20413;-56
2021/09/16 11:21:12;;;;;;;4.93;2.10;;;;;;;17.56;100.00;100714.81;7392490;19;20784;-57
2021/09/16 11:23:49;;;;;;;4.23;1.87;;;;;;;17.49;100.00;100711.25;7400997;19;20475;-58
2021/09/16 11:26:20;;;;;;;3.67;2.10;;;;;;;17.60;100.00;100716.59;7397685;19;20494;-58
2021/09/16 11:29:01;;;;;;;4.30;1.80;;;;;;;17.70;100.00;100712.38;7402507;19;20480;-57
2021/09/16 11:31:30;;;;;;;3.50;1.57;;;;;;;17.45;100.00;100704.25;7395667;19;20439;-57
2021/09/16 11:34:16;;;;;;;6.60;1.60;;;;;;;17.40;100.00;100714.59;7400343;19;20452;-57